Time;durP1;ratioP1;P1;durP2;ratioP2;P2;SDS_P1;SDS_P2;PMS_P1;PMS_P2;Temp;Humidity;BMP_temperature;BMP_pressure;BME280_temperature;BME280_humidity;BME280_pressure;Samples;Min_cycle;Max_cycle;Signal;HPM_P1;HPM_P2
2023/09/08 00:01:45;;;;;;;6.40;3.50;;;;;;;14.63;61.02;101566.20;105091;1256;59638;-61
2023/09/08 00:04:14;;;;;;;6.70;3.70;;;;;;;14.62;61.05;101573.02;105332;1256;59580;-61
2023/09/08 00:06:42;;;;;;;8.00;4.10;;;;;;;14.63;61.15;101574.89;105427;1259;64104;-61
2023/09/08 00:09:09;;;;;;;8.20;3.70;;;;;;;14.62;61.29;101575.10;105089;1254;61539;-61
2023/09/08 00:11:37;;;;;;;8.60;3.90;;;;;;;14.62;61.42;101571.95;105190;1256;63753;-60
2023/09/08 00:14:05;;;;;;;7.20;3.80;;;;;;;14.62;61.51;101575.66;105187;1254;59655;-61
2023/09/08 00:16:33;;;;;;;7.80;4.40;;;;;;;14.58;61.48;101575.04;105208;1259;59747;-62
2023/09/08 00:19:01;;;;;;;10.50;4.10;;;;;;;14.55;61.41;101578.30;106469;1259;64170;-63
2023/09/08 00:21:28;;;;;;;7.50;3.90;;;;;;;14.53;61.47;101577.26;106129;1253;60129;-65
2023/09/08 00:23:56;;;;;;;8.50;3.60;;;;;;;14.54;61.39;101577.14;105980;1259;71408;-63
2023/09/08 00:26:24;;;;;;;8.20;3.90;;;;;;;14.56;61.39;101579.43;106060;1258;59809;-64
2023/09/08 00:28:51;;;;;;;7.60;4.00;;;;;;;14.55;61.40;101582.87;106042;1254;59586;-63
2023/09/08 00:31:19;;;;;;;8.40;4.20;;;;;;;14.53;61.55;101582.38;106153;1254;64467;-63
2023/09/08 00:33:46;;;;;;;10.40;4.40;;;;;;;14.52;61.58;101586.17;106075;1254;61585;-64
2023/09/08 00:36:15;;;;;;;12.10;4.90;;;;;;;14.50;61.51;101585.55;106031;1258;62523;-63
2023/09/08 00:38:42;;;;;;;10.90;4.60;;;;;;;14.47;61.15;101584.58;106066;1254;60093;-63
2023/09/08 00:41:11;;;;;;;7.50;3.40;;;;;;;14.40;60.82;101582.28;106065;1259;59253;-63
2023/09/08 00:43:38;;;;;;;10.50;4.20;;;;;;;14.35;61.05;101583.25;105876;1253;63052;-64
2023/09/08 00:46:06;;;;;;;11.00;4.30;;;;;;;14.36;61.18;101583.67;105950;1253;60589;-64
2023/09/08 00:48:34;;;;;;;10.50;4.20;;;;;;;14.38;61.04;101584.02;106008;1256;64211;-63
2023/09/08 00:51:04;;;;;;;8.20;4.20;;;;;;;14.36;60.92;101584.42;106107;1259;59734;-65
2023/09/08 00:53:34;;;;;;;7.70;4.20;;;;;;;14.30;60.87;101584.13;106510;1253;59669;-64
2023/09/08 00:56:02;;;;;;;9.80;4.70;;;;;;;14.23;60.86;101580.05;106112;1254;62863;-66
2023/09/08 00:58:29;;;;;;;8.00;4.50;;;;;;;14.18;60.95;101577.82;106508;1253;60318;-67
2023/09/08 01:00:57;;;;;;;11.30;4.60;;;;;;;14.12;60.83;101575.92;105085;1255;64312;-65
2023/09/08 01:03:25;;;;;;;8.20;4.20;;;;;;;14.05;60.61;101576.30;105689;1259;59701;-64
2023/09/08 01:05:54;;;;;;;8.80;5.30;;;;;;;13.99;60.56;101572.16;105189;1254;60384;-64
2023/09/08 01:08:21;;;;;;;9.90;4.50;;;;;;;13.92;60.58;101569.30;106041;1256;64782;-64
2023/09/08 01:10:49;;;;;;;8.10;4.10;;;;;;;13.91;60.73;101563.93;106016;1256;61834;-65
2023/09/08 01:13:16;;;;;;;6.90;4.10;;;;;;;13.93;60.80;101562.19;106088;1257;62714;-64
2023/09/08 01:15:45;;;;;;;13.40;4.70;;;;;;;13.93;60.90;101566.11;106029;1259;59744;-65
2023/09/08 01:18:12;;;;;;;9.40;4.10;;;;;;;13.91;60.74;101564.79;106012;1254;60916;-63
2023/09/08 01:20:52;;;;;;;9.40;4.40;;;;;;;13.88;60.60;101563.42;106081;1259;64182;-64
2023/09/08 01:23:21;;;;;;;10.60;4.70;;;;;;;13.84;60.61;101565.19;106147;1255;60232;-60
2023/09/08 01:26:19;;;;;;;8.00;4.20;;;;;;;13.79;60.74;101565.89;106081;1255;63753;-59
2023/09/08 01:28:49;;;;;;;11.20;4.60;;;;;;;13.75;60.79;101571.48;105149;1260;59756;-61
2023/09/08 01:31:17;;;;;;;12.30;5.50;;;;;;;13.77;60.81;101577.52;106269;1256;59539;-64
2023/09/08 01:33:46;;;;;;;9.50;5.00;;;;;;;13.82;60.61;101579.30;106082;1256;64211;-65
2023/09/08 01:36:14;;;;;;;10.60;5.30;;;;;;;13.83;60.30;101578.32;106071;1256;64131;-64
2023/09/08 01:38:41;;;;;;;8.90;4.80;;;;;;;13.85;59.81;101579.95;106006;1259;66500;-63
2023/09/08 01:41:10;;;;;;;10.30;5.30;;;;;;;13.86;59.46;101581.65;106137;1259;60247;-63
2023/09/08 01:43:38;;;;;;;12.20;4.50;;;;;;;13.86;59.15;101581.81;105750;1254;59527;-65
2023/09/08 01:46:06;;;;;;;10.10;5.10;;;;;;;13.85;59.09;101578.33;105913;1256;64057;-62
2023/09/08 01:48:34;;;;;;;8.90;4.70;;;;;;;13.84;59.02;101583.52;106174;1257;60573;-63
2023/09/08 01:51:02;;;;;;;10.10;4.10;;;;;;;13.82;59.09;101585.08;106067;1253;63767;-60
2023/09/08 01:53:29;;;;;;;9.80;4.50;;;;;;;13.78;59.36;101588.02;106196;1253;59858;-61
2023/09/08 01:55:57;;;;;;;8.10;3.80;;;;;;;13.75;59.49;101588.73;106273;1252;59701;-61
2023/09/08 01:58:26;;;;;;;9.30;4.10;;;;;;;13.78;59.66;101586.46;106122;1253;62818;-62
2023/09/08 02:00:54;;;;;;;8.90;4.40;;;;;;;13.82;59.83;101584.17;106175;1257;61354;-63
2023/09/08 02:03:22;;;;;;;8.30;4.50;;;;;;;13.84;59.95;101579.48;106256;1257;63860;-64
2023/09/08 02:05:51;;;;;;;11.30;5.10;;;;;;;13.84;60.18;101576.13;105398;1253;60466;-63
2023/09/08 02:08:18;;;;;;;9.10;4.30;;;;;;;13.81;60.45;101568.23;105479;1256;60855;-64
2023/09/08 02:10:46;;;;;;;10.10;4.50;;;;;;;13.78;60.75;101566.34;106275;1253;63705;-69
2023/09/08 02:13:14;;;;;;;8.10;4.50;;;;;;;13.75;60.95;101563.02;106105;1253;61809;-64
2023/09/08 02:15:42;;;;;;;10.40;5.40;;;;;;;13.71;60.99;101559.95;106187;1251;62483;-63
2023/09/08 02:18:11;;;;;;;10.50;5.00;;;;;;;13.69;60.86;101560.15;106236;1256;60616;-69
2023/09/08 02:20:39;;;;;;;9.90;4.80;;;;;;;13.67;60.88;101557.98;106226;1254;60400;-66
2023/09/08 02:23:08;;;;;;;9.30;4.60;;;;;;;13.64;60.92;101557.27;106425;1253;63673;-65
2023/09/08 02:25:35;;;;;;;7.70;4.50;;;;;;;13.61;60.87;101557.17;106282;1257;60280;-67
2023/09/08 02:28:04;;;;;;;8.30;4.50;;;;;;;13.59;60.83;101554.88;106090;1253;63725;-65
2023/09/08 02:30:31;;;;;;;11.10;4.50;;;;;;;13.57;60.64;101562.26;106077;1251;60529;-65
2023/09/08 02:32:59;;;;;;;16.30;4.60;;;;;;;13.54;60.49;101561.20;106054;1253;60451;-63
2023/09/08 02:35:27;;;;;;;10.30;4.80;;;;;;;13.51;60.46;101557.59;106136;1250;64876;-64
2023/09/08 02:37:56;;;;;;;11.00;4.70;;;;;;;13.46;60.45;101558.63;106291;1253;61512;-64
2023/09/08 02:40:24;;;;;;;9.30;4.30;;;;;;;13.47;60.41;101555.26;106195;1252;62745;-63
2023/09/08 02:42:51;;;;;;;9.30;4.80;;;;;;;13.49;60.54;101554.00;106213;1256;59184;-64
2023/09/08 02:45:19;;;;;;;9.90;5.20;;;;;;;13.52;60.65;101549.23;106091;1252;60598;-62
2023/09/08 02:47:47;;;;;;;9.60;4.80;;;;;;;13.52;60.70;101548.49;106245;1250;65041;-64
2023/09/08 02:50:14;;;;;;;13.00;5.20;;;;;;;13.51;60.65;101551.75;106284;1258;60516;-64
2023/09/08 02:52:42;;;;;;;10.40;5.00;;;;;;;13.49;60.92;101552.08;106131;1257;63745;-63
2023/09/08 02:55:09;;;;;;;9.10;4.40;;;;;;;13.44;61.14;101551.91;106249;1251;60455;-63
2023/09/08 02:57:38;;;;;;;7.60;4.60;;;;;;;13.39;61.41;101551.20;106358;1257;60560;-62
2023/09/08 03:00:07;;;;;;;12.30;5.40;;;;;;;13.43;61.45;101550.77;106166;1256;64858;-63
2023/09/08 03:02:35;;;;;;;9.40;4.80;;;;;;;13.47;61.45;101549.95;106320;1257;60428;-64
2023/09/08 03:05:03;;;;;;;13.40;4.90;;;;;;;13.48;61.46;101549.37;106369;1258;63951;-64
2023/09/08 03:07:33;;;;;;;8.60;4.60;;;;;;;13.45;61.51;101546.77;106194;1256;60556;-65
2023/09/08 03:10:01;;;;;;;11.10;5.00;;;;;;;13.42;61.27;101545.52;106564;1257;60550;-60
2023/09/08 03:12:30;;;;;;;9.00;5.00;;;;;;;13.39;61.21;101543.48;105116;1253;64966;-64
2023/09/08 03:14:57;;;;;;;10.00;4.80;;;;;;;13.35;61.33;101541.81;106012;1257;61340;-64
2023/09/08 03:17:25;;;;;;;11.00;4.80;;;;;;;13.32;61.40;101544.65;105243;1253;62530;-62
2023/09/08 03:19:53;;;;;;;9.40;4.60;;;;;;;13.34;61.40;101545.08;105206;1258;60715;-63
2023/09/08 03:22:20;;;;;;;10.20;4.80;;;;;;;13.37;61.47;101544.14;105251;1257;60348;-63
2023/09/08 03:24:48;;;;;;;10.00;5.40;;;;;;;13.37;61.40;101546.46;108326;1253;63801;-64
2023/09/08 03:27:15;;;;;;;10.50;4.90;;;;;;;13.35;61.38;101549.77;106322;1253;61766;-64
2023/09/08 03:29:43;;;;;;;11.10;5.30;;;;;;;13.31;61.47;101552.67;106227;1258;62440;-64
2023/09/08 03:32:10;;;;;;;8.40;5.00;;;;;;;13.28;61.61;101549.36;106146;1253;60555;-64
2023/09/08 03:34:39;;;;;;;12.50;5.20;;;;;;;13.26;61.61;101550.92;106502;1257;60492;-64
2023/09/08 03:37:07;;;;;;;9.00;4.60;;;;;;;13.23;61.63;101554.81;106190;1259;63670;-61
2023/09/08 03:39:35;;;;;;;9.10;4.80;;;;;;;13.26;61.54;101553.22;105651;1258;61520;-64
2023/09/08 03:42:03;;;;;;;9.50;4.60;;;;;;;13.31;61.53;101553.73;106663;1253;63807;-62
2023/09/08 03:44:30;;;;;;;8.20;4.50;;;;;;;13.34;61.53;101555.31;105907;1253;60533;-57
2023/09/08 03:46:58;;;;;;;9.70;5.50;;;;;;;13.34;61.59;101549.45;106814;1253;60483;-63
2023/09/08 03:49:30;;;;;;;11.90;5.30;;;;;;;13.35;61.53;101547.30;105898;1250;64946;-60
2023/09/08 03:51:58;;;;;;;12.50;5.60;;;;;;;13.35;61.28;101551.16;105609;1253;61284;-65
2023/09/08 03:54:25;;;;;;;10.10;5.80;;;;;;;13.34;61.17;101553.73;106150;1258;63777;-66
2023/09/08 03:56:53;;;;;;;9.00;5.30;;;;;;;13.31;61.24;101551.63;106189;1252;60608;-65
2023/09/08 03:59:20;;;;;;;11.10;4.80;;;;;;;13.29;61.39;101549.48;106182;1258;60394;-62
2023/09/08 04:01:48;;;;;;;11.80;5.00;;;;;;;13.32;61.64;101547.46;105327;1250;63689;-60
2023/09/08 04:04:19;;;;;;;10.20;5.00;;;;;;;13.39;61.72;101548.04;107657;1255;60379;-65
2023/09/08 04:06:48;;;;;;;10.00;4.90;;;;;;;13.48;61.75;101545.65;106375;1254;64793;-67
2023/09/08 04:09:19;;;;;;;8.40;5.10;;;;;;;13.52;61.81;101544.08;105716;1256;60550;-65
2023/09/08 04:11:47;;;;;;;10.80;5.70;;;;;;;13.55;61.68;101540.67;106288;1253;60449;-64
2023/09/08 04:14:15;;;;;;;9.50;5.00;;;;;;;13.57;61.48;101540.02;106240;1256;64970;-64
2023/09/08 04:16:42;;;;;;;11.80;5.40;;;;;;;13.57;61.32;101536.68;106233;1255;60423;-64
2023/09/08 04:19:10;;;;;;;8.90;5.00;;;;;;;13.57;61.46;101536.50;105478;1251;63717;-63
2023/09/08 04:21:38;;;;;;;8.90;5.00;;;;;;;13.58;61.40;101540.49;105508;1258;60652;-64
2023/09/08 04:24:07;;;;;;;10.10;5.00;;;;;;;13.62;61.44;101544.64;105205;1256;60415;-65
2023/09/08 04:26:35;;;;;;;10.30;4.70;;;;;;;13.68;61.37;101544.33;106677;1252;63657;-62
2023/09/08 04:29:03;;;;;;;11.20;5.20;;;;;;;13.73;61.47;101541.31;108356;1254;61439;-63
2023/09/08 04:31:31;;;;;;;10.60;6.00;;;;;;;13.78;61.36;101542.36;105239;1253;62440;-66
2023/09/08 04:33:58;;;;;;;9.50;5.40;;;;;;;13.81;61.14;101546.02;106266;1256;60560;-65
2023/09/08 04:36:26;;;;;;;11.10;5.50;;;;;;;13.82;61.01;101548.05;105511;1250;60613;-66
2023/09/08 04:38:54;;;;;;;10.40;5.70;;;;;;;13.83;60.78;101550.59;105425;1256;65003;-67
2023/09/08 04:41:22;;;;;;;12.70;5.80;;;;;;;13.86;60.34;101550.77;105371;1252;61640;-64
2023/09/08 04:43:49;;;;;;;10.70;5.20;;;;;;;13.87;59.79;101551.92;105455;1253;63782;-64
2023/09/08 04:46:17;;;;;;;10.90;4.80;;;;;;;13.86;59.43;101549.30;105084;1253;60546;-62
2023/09/08 04:48:45;;;;;;;9.90;5.20;;;;;;;13.90;59.35;101545.18;106359;1253;60556;-60
2023/09/08 04:51:13;;;;;;;9.10;5.10;;;;;;;13.99;59.25;101543.23;105374;1258;64934;-51
2023/09/08 04:53:41;;;;;;;9.90;5.20;;;;;;;14.11;59.09;101543.73;105201;1253;61311;-52
2023/09/08 04:56:08;;;;;;;16.70;6.50;;;;;;;14.20;58.92;101540.73;109073;1251;62497;-53
2023/09/08 04:58:35;;;;;;;10.80;5.80;;;;;;;14.29;58.88;101539.89;109149;1253;60439;-53
2023/09/08 05:01:03;;;;;;;9.60;5.00;;;;;;;14.38;58.60;101541.31;108428;1251;58409;-56
2023/09/08 05:03:32;;;;;;;11.70;5.60;;;;;;;14.47;58.62;101538.89;105204;1256;65773;-55
2023/09/08 05:06:01;;;;;;;11.90;5.30;;;;;;;14.55;58.59;101539.69;105175;1253;61346;-53
2023/09/08 05:08:29;;;;;;;11.20;5.50;;;;;;;14.62;58.58;101535.77;109297;1251;64216;-51
2023/09/08 05:10:57;;;;;;;9.30;4.80;;;;;;;14.70;58.45;101538.28;109303;1250;63726;-54
2023/09/08 05:13:26;;;;;;;10.80;5.10;;;;;;;14.84;58.23;101539.48;109359;1251;58163;-57
2023/09/08 05:16:10;;;;;;;11.50;5.80;;;;;;;14.99;57.82;101535.79;109325;1250;63653;-55
2023/09/08 05:18:47;;;;;;;11.20;6.20;;;;;;;15.12;57.50;101536.23;106449;1257;71304;-53
2023/09/08 05:21:16;;;;;;;10.60;6.30;;;;;;;15.19;57.44;101533.30;105441;1253;62519;-56
2023/09/08 05:23:44;;;;;;;11.20;5.80;;;;;;;15.28;57.52;101533.16;105279;1253;60443;-65
2023/09/08 05:26:11;;;;;;;12.20;5.30;;;;;;;15.34;57.09;101531.43;105403;1256;60758;-62
2023/09/08 05:28:41;;;;;;;12.60;6.70;;;;;;;15.38;56.93;101531.79;105717;1255;65003;-66
2023/09/08 05:31:13;;;;;;;11.00;5.90;;;;;;;15.43;56.83;101532.98;107515;1250;63630;-57
2023/09/08 05:33:40;;;;;;;9.80;6.00;;;;;;;15.49;56.82;101532.68;105092;1253;64237;-58
2023/09/08 05:36:08;;;;;;;10.30;6.80;;;;;;;15.56;56.72;101533.86;105167;1258;60557;-59
2023/09/08 05:38:39;;;;;;;10.90;6.10;;;;;;;15.63;56.64;101535.26;105320;1253;60364;-58
2023/09/08 05:41:08;;;;;;;10.20;6.00;;;;;;;15.74;56.47;101533.42;109197;1254;63638;-58
2023/09/08 05:43:36;;;;;;;19.20;7.40;;;;;;;15.88;56.27;101531.02;109064;1251;61993;-64
2023/09/08 05:46:09;;;;;;;13.10;7.20;;;;;;;16.01;56.54;101528.34;106687;1258;62725;-68
2023/09/08 05:48:40;;;;;;;14.40;6.60;;;;;;;16.14;56.43;101522.48;109214;1252;62289;-70
2023/09/08 05:51:07;;;;;;;11.40;6.10;;;;;;;16.23;56.07;101514.85;106210;1251;60504;-69
2023/09/08 05:53:39;;;;;;;10.70;5.90;;;;;;;16.30;55.96;101514.94;105764;1254;76574;-66
2023/09/08 05:56:08;;;;;;;13.20;5.90;;;;;;;16.38;55.88;101513.31;105513;1256;62693;-66
2023/09/08 05:58:37;;;;;;;15.30;7.10;;;;;;;16.47;55.98;101511.64;106714;1256;62467;-65
2023/09/08 06:01:04;;;;;;;13.80;7.10;;;;;;;16.54;55.84;101509.98;105602;1253;62256;-64
2023/09/08 06:03:35;;;;;;;11.60;6.50;;;;;;;16.58;55.56;101508.23;105830;1256;60617;-63
2023/09/08 06:06:04;;;;;;;15.80;7.30;;;;;;;16.65;55.21;101507.95;105558;1251;63905;-68
2023/09/08 06:08:31;;;;;;;13.70;7.20;;;;;;;16.78;53.96;101504.52;105466;1257;60534;-70
2023/09/08 06:11:00;;;;;;;15.60;7.40;;;;;;;16.92;53.54;101504.05;105338;1253;63728;-65
2023/09/08 06:13:28;;;;;;;12.10;7.20;;;;;;;17.01;53.25;101502.86;105171;1253;60557;-66
2023/09/08 06:15:55;;;;;;;12.30;7.00;;;;;;;17.10;53.32;101500.96;105732;1251;60332;-67
2023/09/08 06:18:23;;;;;;;19.50;7.30;;;;;;;17.19;53.27;101499.73;105352;1253;63636;-64
2023/09/08 06:20:52;;;;;;;10.90;6.10;;;;;;;17.24;52.70;101497.61;105220;1257;61108;-68
2023/09/08 06:23:20;;;;;;;11.70;6.20;;;;;;;17.29;52.10;101500.54;106250;1254;62533;-68
2023/09/08 06:25:48;;;;;;;14.50;6.90;;;;;;;17.33;52.19;101500.20;105273;1253;60530;-67
2023/09/08 06:28:16;;;;;;;11.00;5.70;;;;;;;17.36;52.03;101496.67;105145;1252;60552;-67
2023/09/08 06:30:44;;;;;;;13.50;5.90;;;;;;;17.40;52.41;101497.91;105223;1256;64962;-57
2023/09/08 06:33:12;;;;;;;11.60;6.20;;;;;;;17.47;52.58;101499.63;109200;1251;68163;-58
2023/09/08 06:35:39;;;;;;;16.50;6.00;;;;;;;17.52;52.07;101495.24;109168;1254;63705;-57
2023/09/08 06:38:07;;;;;;;10.20;5.80;;;;;;;17.59;52.17;101495.35;109159;1253;58205;-58
2023/09/08 06:40:34;;;;;;;13.00;5.80;;;;;;;17.65;51.49;101491.23;109150;1251;59466;-56
2023/09/08 06:43:02;;;;;;;11.00;5.60;;;;;;;17.71;50.58;101487.49;109264;1253;63849;-61
2023/09/08 06:45:51;;;;;;;10.80;5.50;;;;;;;17.78;50.27;101487.20;109356;1251;61625;-61
2023/09/08 06:48:20;;;;;;;11.30;6.10;;;;;;;17.84;50.32;101483.80;109210;1253;62606;-62
2023/09/08 06:50:47;;;;;;;14.80;6.40;;;;;;;17.92;50.46;101478.98;109224;1253;59056;-65
2023/09/08 06:53:15;;;;;;;9.50;5.30;;;;;;;18.00;50.59;101476.46;109218;1251;58661;-65
2023/09/08 06:55:43;;;;;;;12.30;5.50;;;;;;;18.09;50.61;101475.99;105584;1253;74924;-66
2023/09/08 06:58:14;;;;;;;11.70;6.00;;;;;;;18.16;50.58;101477.92;105405;1253;61384;-67
2023/09/08 07:00:42;;;;;;;11.20;5.50;;;;;;;18.25;50.70;101477.53;105405;1253;62487;-63
2023/09/08 07:03:10;;;;;;;10.20;5.40;;;;;;;18.30;50.93;101473.58;105508;1253;60479;-61
2023/09/08 07:05:41;;;;;;;9.50;4.70;;;;;;;18.37;50.65;101469.59;105286;1253;60526;-61
2023/09/08 07:08:09;;;;;;;13.70;4.70;;;;;;;18.42;49.12;101469.30;105312;1256;63749;-66
2023/09/08 07:10:36;;;;;;;13.40;5.00;;;;;;;18.46;48.61;101471.27;105254;1258;60441;-64
2023/09/08 07:13:05;;;;;;;9.30;4.30;;;;;;;18.50;47.83;101470.98;105727;1253;63759;-67
2023/09/08 07:15:33;;;;;;;20.20;6.60;;;;;;;18.55;47.58;101470.65;105747;1256;60464;-67
2023/09/08 07:18:00;;;;;;;16.50;5.90;;;;;;;18.61;47.62;101471.71;105040;1252;60438;-68
2023/09/08 07:20:32;;;;;;;11.90;5.00;;;;;;;18.68;47.73;101471.43;105268;1253;64879;-64
2023/09/08 07:23:00;;;;;;;10.80;4.70;;;;;;;18.76;48.20;101473.84;106267;1251;63108;-62
2023/09/08 07:25:27;;;;;;;11.40;4.60;;;;;;;18.83;48.47;101467.64;106235;1253;63831;-60
2023/09/08 07:27:55;;;;;;;12.20;4.90;;;;;;;18.89;48.25;101467.27;106236;1253;60425;-62
2023/09/08 07:30:25;;;;;;;13.40;4.80;;;;;;;18.96;48.07;101467.29;105784;1256;60345;-59
2023/09/08 07:32:54;;;;;;;10.10;4.40;;;;;;;19.03;47.72;101466.96;106787;1253;64907;-59
2023/09/08 07:35:24;;;;;;;9.90;3.90;;;;;;;19.10;47.30;101460.69;105217;1254;61979;-59
2023/09/08 07:37:52;;;;;;;7.30;3.80;;;;;;;19.17;46.41;101461.52;105559;1253;63695;-57
2023/09/08 07:40:21;;;;;;;10.40;3.90;;;;;;;19.24;46.38;101456.38;105352;1254;60592;-57
2023/09/08 07:42:49;;;;;;;8.50;3.70;;;;;;;19.31;45.63;101452.08;105524;1254;60361;-66
2023/09/08 07:45:18;;;;;;;9.10;3.70;;;;;;;19.39;46.34;101451.23;105527;1258;76830;-64
2023/09/08 07:47:46;;;;;;;7.30;3.70;;;;;;;19.46;46.01;101449.16;105584;1256;61391;-62
2023/09/08 07:50:19;;;;;;;9.90;3.10;;;;;;;19.52;45.80;101443.56;105405;1251;74792;-62
2023/09/08 07:52:48;;;;;;;9.00;3.00;;;;;;;19.56;44.79;101440.98;105306;1253;60549;-62
2023/09/08 07:55:16;;;;;;;9.40;3.20;;;;;;;19.60;43.86;101440.41;105476;1256;60467;-62
2023/09/08 07:57:45;;;;;;;6.80;3.00;;;;;;;19.62;43.53;101434.33;105610;1254;63785;-62
2023/09/08 08:00:14;;;;;;;5.10;2.10;;;;;;;19.66;43.39;101433.11;105657;1254;61398;-63
2023/09/08 08:02:54;;;;;;;8.00;2.30;;;;;;;19.70;43.32;101434.23;105638;1256;63794;-64
2023/09/08 08:05:22;;;;;;;6.70;2.40;;;;;;;19.75;43.59;101434.35;105534;1256;60448;-62
2023/09/08 08:07:50;;;;;;;5.90;2.50;;;;;;;19.79;43.32;101429.59;106242;1256;60525;-62
2023/09/08 08:10:19;;;;;;;9.30;2.80;;;;;;;19.84;42.94;101421.45;105572;1255;64988;-66
2023/09/08 08:12:46;;;;;;;6.00;2.50;;;;;;;19.88;42.43;101422.32;105471;1256;63576;-65
2023/09/08 08:15:14;;;;;;;8.50;3.00;;;;;;;19.91;42.85;101422.58;105593;1250;63821;-58
2023/09/08 08:17:42;;;;;;;16.90;3.10;;;;;;;19.95;42.78;101423.20;105715;1254;60425;-68
2023/09/08 08:20:16;;;;;;;9.90;2.70;;;;;;;20.00;42.50;101419.64;106566;1255;60723;-68
2023/09/08 08:22:45;;;;;;;6.10;2.50;;;;;;;20.05;42.32;101416.30;105753;1253;65104;-70
2023/09/08 08:25:14;;;;;;;11.20;2.90;;;;;;;20.09;42.16;101411.78;105682;1256;61405;-65
2023/09/08 08:27:42;;;;;;;5.70;2.10;;;;;;;20.14;42.41;101406.30;105414;1254;64911;-63
2023/09/08 08:30:11;;;;;;;4.50;2.10;;;;;;;20.19;41.92;101401.13;105457;1255;60595;-66
2023/09/08 08:32:40;;;;;;;5.90;2.10;;;;;;;20.22;41.36;101401.65;105640;1256;60445;-70
2023/09/08 08:35:08;;;;;;;10.00;2.10;;;;;;;20.26;41.40;101397.77;105822;1257;66952;-68
2023/09/08 08:37:39;;;;;;;5.80;2.20;;;;;;;20.29;41.38;101399.86;105653;1255;62246;-68
2023/09/08 08:40:13;;;;;;;9.40;2.20;;;;;;;20.34;41.09;101396.13;105907;1256;63749;-64
2023/09/08 08:42:42;;;;;;;6.10;2.20;;;;;;;20.38;40.89;101392.20;105963;1253;60600;-66
2023/09/08 08:45:16;;;;;;;6.20;2.30;;;;;;;20.42;41.06;101386.97;105456;1257;60559;-60
2023/09/08 08:47:44;;;;;;;5.80;2.10;;;;;;;20.45;41.01;101383.77;105942;1251;64962;-61
2023/09/08 08:50:12;;;;;;;8.10;2.30;;;;;;;20.48;41.15;101381.80;105204;1257;60728;-63
2023/09/08 08:52:40;;;;;;;10.50;2.40;;;;;;;20.53;41.35;101377.75;106147;1257;62505;-65
2023/09/08 08:55:18;;;;;;;5.50;2.20;;;;;;;20.57;40.29;101375.11;105884;1259;60425;-61
2023/09/08 08:57:47;;;;;;;4.50;2.00;;;;;;;20.62;40.24;101374.70;105401;1257;60468;-60
2023/09/08 09:00:18;;;;;;;6.00;2.20;;;;;;;20.65;39.94;101370.44;105740;1259;67276;-64
2023/09/08 09:02:48;;;;;;;6.30;2.60;;;;;;;20.69;40.01;101375.56;105648;1254;61793;-63
2023/09/08 09:05:35;;;;;;;6.30;2.00;;;;;;;20.75;40.06;101376.48;106160;1253;64657;-66
2023/09/08 09:08:04;;;;;;;7.60;2.40;;;;;;;20.85;40.63;101372.96;105913;1253;61522;-61
2023/09/08 09:10:36;;;;;;;7.90;2.30;;;;;;;20.92;40.47;101370.55;105611;1251;60444;-58
2023/09/08 09:13:04;;;;;;;8.80;3.00;;;;;;;21.00;40.75;101365.25;105387;1256;64883;-60
2023/09/08 09:15:34;;;;;;;5.80;2.00;;;;;;;21.08;41.12;101361.57;105261;1251;61605;-63
2023/09/08 09:18:06;;;;;;;6.20;2.10;;;;;;;21.15;40.61;101359.61;105193;1256;62547;-63
2023/09/08 09:20:34;;;;;;;6.20;2.60;;;;;;;21.21;40.08;101355.27;107440;1256;60501;-59
2023/09/08 09:23:01;;;;;;;6.20;1.90;;;;;;;21.25;39.51;101352.38;105858;1256;60358;-60
2023/09/08 09:25:30;;;;;;;6.40;2.10;;;;;;;21.26;39.82;101349.73;105446;1256;64887;-59
2023/09/08 09:28:00;;;;;;;6.30;2.40;;;;;;;21.30;39.61;101348.39;105922;1251;61533;-57
2023/09/08 09:30:30;;;;;;;14.20;2.10;;;;;;;21.35;39.29;101346.95;106035;1256;62520;-59
2023/09/08 09:33:04;;;;;;;5.80;2.10;;;;;;;21.41;39.33;101346.67;105994;1254;60489;-59
2023/09/08 09:35:45;;;;;;;6.30;2.80;;;;;;;21.47;39.38;101342.25;106042;1256;60386;-62
2023/09/08 09:38:13;;;;;;;5.60;1.90;;;;;;;21.53;39.16;101339.84;105518;1256;66050;-65
2023/09/08 09:40:40;;;;;;;5.80;2.20;;;;;;;21.56;39.10;101341.10;105753;1257;61379;-59
2023/09/08 09:43:08;;;;;;;6.80;2.40;;;;;;;21.60;39.58;101341.52;105620;1257;63694;-62
2023/09/08 09:45:36;;;;;;;6.40;2.10;;;;;;;21.66;39.52;101334.41;105801;1253;61119;-59
2023/09/08 09:48:06;;;;;;;8.70;2.20;;;;;;;21.73;39.36;101329.06;105984;1256;59368;-66
2023/09/08 09:50:40;;;;;;;7.30;2.00;;;;;;;21.76;39.06;101324.36;107511;1256;64881;-64
2023/09/08 09:53:10;;;;;;;6.00;2.20;;;;;;;21.80;39.35;101323.08;107566;1255;62012;-70
2023/09/08 09:55:40;;;;;;;7.60;2.10;;;;;;;21.84;38.64;101315.83;105527;1257;64177;-69
2023/09/08 09:58:08;;;;;;;5.60;1.80;;;;;;;21.87;38.70;101316.89;105635;1255;60547;-61
2023/09/08 10:00:36;;;;;;;5.40;2.00;;;;;;;21.92;39.17;101310.46;105369;1257;60562;-61
2023/09/08 10:03:05;;;;;;;5.40;2.10;;;;;;;21.97;38.78;101309.20;105942;1255;64838;-65
2023/09/08 10:05:34;;;;;;;5.00;1.90;;;;;;;22.01;38.38;101310.28;105899;1256;61637;-63
2023/09/08 10:08:02;;;;;;;6.50;2.20;;;;;;;22.05;38.14;101306.10;105231;1259;63749;-59
2023/09/08 10:13:21;;;;;;;4.70;1.80;;;;;;;21.96;38.79;101297.98;102171;1297;600760;-61
2023/09/08 10:15:49;;;;;;;6.30;2.30;;;;;;;22.13;37.85;101296.11;104528;1271;59699;-62
2023/09/08 10:18:19;;;;;;;5.90;1.60;;;;;;;22.15;37.70;101295.66;104264;1273;59434;-60
2023/09/08 10:20:48;;;;;;;7.00;2.00;;;;;;;22.17;37.97;101291.33;104477;1273;63493;-61
2023/09/08 10:23:24;;;;;;;6.20;1.90;;;;;;;22.21;38.18;101285.60;104608;1266;70834;-59
2023/09/08 10:25:54;;;;;;;7.10;1.90;;;;;;;22.27;37.90;101283.34;106177;1264;272371;-61
2023/09/08 10:28:22;;;;;;;5.20;1.80;;;;;;;22.33;37.79;101282.89;104936;1270;59994;-60
2023/09/08 10:30:51;;;;;;;6.50;1.50;;;;;;;22.38;37.79;101278.92;104933;1258;59308;-61
2023/09/08 10:33:19;;;;;;;4.70;1.70;;;;;;;22.42;37.95;101273.96;104738;1266;63901;-61
2023/09/08 10:35:46;;;;;;;4.90;1.50;;;;;;;22.48;37.82;101272.41;104727;1260;61301;-61
2023/09/08 10:38:28;;;;;;;6.00;1.90;;;;;;;22.54;37.10;101272.27;104868;1261;63893;-66
2023/09/08 10:41:22;;;;;;;7.10;2.10;;;;;;;22.60;37.70;101270.60;105282;1265;59755;-63
2023/09/08 10:43:56;;;;;;;7.10;2.00;;;;;;;22.70;37.82;101270.22;106406;1264;62527;-68
2023/09/08 10:46:27;;;;;;;6.90;2.00;;;;;;;22.77;37.46;101259.73;104854;1263;62874;-62
2023/09/08 10:48:55;;;;;;;4.50;1.80;;;;;;;22.83;37.94;101256.48;104924;1265;61551;-66
2023/09/08 10:51:23;;;;;;;6.70;1.80;;;;;;;22.91;37.13;101251.60;105609;1263;66036;-70
2023/09/08 10:53:51;;;;;;;5.10;1.80;;;;;;;22.98;36.26;101243.55;104702;1260;59801;-68
2023/09/08 10:56:19;;;;;;;4.80;1.70;;;;;;;23.04;36.28;101243.42;104849;1263;61278;-70
2023/09/08 10:58:51;;;;;;;5.10;1.90;;;;;;;23.06;35.48;101238.23;105033;1261;62892;-62
2023/09/08 11:01:26;;;;;;;7.70;2.30;;;;;;;23.05;35.49;101241.84;104691;1264;63973;-57
2023/09/08 11:03:54;;;;;;;6.10;1.70;;;;;;;23.06;35.51;101235.13;106443;1263;64241;-61
2023/09/08 11:06:22;;;;;;;4.60;1.80;;;;;;;23.09;36.30;101231.92;105468;1262;59763;-65
2023/09/08 11:08:53;;;;;;;7.40;2.30;;;;;;;23.14;36.39;101230.25;104721;1272;59071;-65
2023/09/08 11:11:20;;;;;;;4.90;1.70;;;;;;;23.20;36.04;101228.44;108786;1260;75614;-62
2023/09/08 11:13:48;;;;;;;5.80;1.70;;;;;;;23.27;35.84;101223.34;108804;1257;60095;-62
2023/09/08 11:16:21;;;;;;;5.20;1.60;;;;;;;23.35;35.84;101218.56;108675;1261;64352;-61
2023/09/08 11:18:50;;;;;;;5.20;1.80;;;;;;;23.47;35.99;101214.29;108740;1261;59163;-68
2023/09/08 11:21:18;;;;;;;6.80;1.90;;;;;;;23.57;34.88;101214.36;108735;1261;57446;-67
2023/09/08 11:23:45;;;;;;;7.70;2.30;;;;;;;23.64;34.40;101211.52;108712;1260;64164;-72
2023/09/08 11:26:13;;;;;;;4.80;1.60;;;;;;;23.75;34.51;101203.21;107450;1263;60176;-62